createdAt,value
2018-12-20T00:00:09.744Z,100105.70
2018-12-20T00:05:12.254Z,100095.45
2018-12-20T00:10:14.768Z,100099.01
2018-12-20T00:15:17.354Z,100092.88
2018-12-20T00:20:19.924Z,100093.25
2018-12-20T00:25:22.537Z,100088.53
2018-12-20T00:30:25.262Z,100081.67
2018-12-20T00:35:27.926Z,100092.08
2018-12-20T00:40:31.022Z,100085.41
2018-12-20T00:45:33.718Z,100081.61
2018-12-20T00:50:36.446Z,100076.25
2018-12-20T00:55:39.437Z,100082.58
2018-12-20T01:00:41.944Z,100084.45
2018-12-20T01:05:44.502Z,100081.86
2018-12-20T01:10:47.000Z,100089.08
2018-12-20T01:15:49.491Z,100090.20
2018-12-20T01:20:52.105Z,100099.67
2018-12-20T01:25:54.927Z,100102.03
2018-12-20T01:30:57.594Z,100101.87
2018-12-20T01:36:00.893Z,100107.42
2018-12-20T01:41:03.496Z,100102.86
2018-12-20T01:46:06.193Z,100100.56
2018-12-20T01:51:08.877Z,100107.20
2018-12-20T01:56:12.215Z,100112.55
2018-12-20T02:01:14.929Z,100113.70
2018-12-20T02:06:17.670Z,100110.78
2018-12-20T02:11:20.548Z,100109.97
2018-12-20T02:16:23.256Z,100105.02
2018-12-20T02:21:25.965Z,100107.57
2018-12-20T02:26:28.710Z,100098.89
2018-12-20T02:31:31.575Z,100100.69
2018-12-20T02:36:34.618Z,100093.72
2018-12-20T02:41:38.125Z,100088.78
2018-12-20T02:46:40.791Z,100081.71
2018-12-20T02:51:43.454Z,100085.61
2018-12-20T02:56:46.389Z,100078.34
2018-12-20T03:01:49.262Z,100078.00
2018-12-20T03:06:51.893Z,100078.31
2018-12-20T03:11:54.377Z,100074.56
2018-12-20T03:16:57.056Z,100071.42
2018-12-20T03:21:59.964Z,100073.22
2018-12-20T03:27:02.676Z,100068.72
2018-12-20T03:32:05.365Z,100068.16
2018-12-20T03:37:08.049Z,100064.98
2018-12-20T03:42:10.794Z,100055.06
2018-12-20T03:47:14.227Z,100058.06
2018-12-20T03:52:17.053Z,100059.34
2018-12-20T03:57:19.822Z,100053.30
2018-12-20T04:02:24.451Z,100046.76
2018-12-20T04:07:27.497Z,100035.50
2018-12-20T04:12:30.320Z,100039.65
2018-12-20T04:17:33.050Z,100045.53
2018-12-20T04:22:35.730Z,100043.39
2018-12-20T04:27:39.436Z,100052.53
2018-12-20T04:32:42.073Z,100045.78
2018-12-20T04:37:45.246Z,100041.38
2018-12-20T04:42:47.941Z,100043.20
2018-12-20T04:47:50.808Z,100055.22
2018-12-20T04:52:53.596Z,100060.16
2018-12-20T04:57:56.255Z,100055.06
2018-12-20T05:02:58.931Z,100045.53
2018-12-20T05:08:01.721Z,100045.12
2018-12-20T05:13:04.485Z,100046.57
2018-12-20T05:18:07.042Z,100045.19
2018-12-20T05:23:09.912Z,100043.02
2018-12-20T05:28:12.553Z,100039.66
2018-12-20T05:33:15.524Z,100039.46
2018-12-20T05:38:18.143Z,100043.02
2018-12-20T05:43:20.920Z,100045.41
2018-12-20T05:48:24.055Z,100054.31
2018-12-20T05:53:26.814Z,100059.45
2018-12-20T05:58:29.505Z,100064.98
2018-12-20T06:03:32.012Z,100052.19
2018-12-20T06:08:34.664Z,100058.50
2018-12-20T06:13:37.460Z,100060.64
2018-12-20T06:18:40.957Z,100062.41
2018-12-20T06:23:43.613Z,100060.64
2018-12-20T06:28:46.305Z,100063.59
2018-12-20T06:33:48.948Z,100060.42
2018-12-20T06:38:51.698Z,100056.86
2018-12-20T06:43:54.163Z,100062.81
2018-12-20T06:48:56.628Z,100064.58
2018-12-20T06:53:59.092Z,100067.75
2018-12-20T06:59:01.591Z,100062.22
2018-12-20T07:04:04.076Z,100067.00
2018-12-20T07:09:07.691Z,100068.38
2018-12-20T07:14:10.147Z,100076.50
2018-12-20T07:19:12.614Z,100078.48
2018-12-20T07:24:15.976Z,100081.59
2018-12-20T07:29:18.450Z,100081.78
2018-12-20T07:34:20.945Z,100091.48
2018-12-20T07:39:23.432Z,100083.95
2018-12-20T07:44:25.900Z,100095.28
2018-12-20T07:49:28.365Z,100095.88
2018-12-20T07:54:30.837Z,100098.99
2018-12-20T07:59:33.300Z,100091.33
2018-12-20T08:04:35.784Z,100088.92
2018-12-20T08:09:38.741Z,100090.02
2018-12-20T08:14:41.241Z,100085.71
2018-12-20T08:19:43.712Z,100077.67
2018-12-20T08:24:46.184Z,100088.05
2018-12-20T08:29:49.617Z,100088.55
2018-12-20T08:34:52.085Z,100095.83
2018-12-20T08:39:55.024Z,100088.97
2018-12-20T08:44:57.488Z,100084.91
2018-12-20T08:49:59.952Z,100092.00
2018-12-20T08:55:02.577Z,100087.59
2018-12-20T09:00:07.624Z,100089.31
2018-12-20T09:05:10.126Z,100098.78
2018-12-20T09:10:13.437Z,100098.72
2018-12-20T09:15:15.960Z,100117.50
2018-12-20T09:20:18.550Z,100113.12
2018-12-20T09:25:21.667Z,100106.39
2018-12-20T09:30:30.476Z,100105.98
2018-12-20T09:35:28.702Z,100100.02
2018-12-20T09:40:31.432Z,100100.78
2018-12-20T09:45:33.936Z,100087.30
2018-12-20T09:50:36.655Z,100081.77
2018-12-20T09:55:39.120Z,100083.52
2018-12-20T10:00:41.604Z,100077.98
2018-12-20T10:05:44.119Z,100074.98
2018-12-20T10:10:46.699Z,100066.00
2018-12-20T10:15:49.196Z,100067.80
2018-12-20T10:20:51.664Z,100063.23
2018-12-20T10:25:54.165Z,100065.95
2018-12-20T10:30:56.701Z,100062.55
2018-12-20T10:35:59.204Z,100055.52
2018-12-20T10:41:01.680Z,100048.70
2018-12-20T10:46:04.212Z,100053.41
2018-12-20T10:51:06.687Z,100051.73
2018-12-20T10:56:09.206Z,100041.61
2018-12-20T11:01:17.445Z,100035.98
2018-12-20T11:06:25.465Z,100038.34
2018-12-20T11:11:29.888Z,100031.19
2018-12-20T11:16:41.120Z,100026.02
2018-12-20T11:21:45.676Z,100027.58
2018-12-20T11:26:48.102Z,100020.28
2018-12-20T11:31:50.580Z,100006.66
2018-12-20T11:36:53.053Z,100002.50
2018-12-20T11:41:55.525Z,100008.34
2018-12-20T11:46:58.009Z,100011.89
2018-12-20T11:52:00.477Z,100007.50
2018-12-20T11:57:02.941Z,100008.10
2018-12-20T12:02:05.461Z,100013.83
2018-12-20T12:07:08.082Z,100013.64
2018-12-20T12:12:10.815Z,100011.58
2018-12-20T12:17:13.550Z,100002.06
2018-12-20T12:22:16.044Z,100003.81
2018-12-20T12:27:18.701Z,100000.54
2018-12-20T12:32:21.172Z,99999.52
2018-12-20T12:37:23.708Z,100000.44
2018-12-20T12:42:26.248Z,100007.21
2018-12-20T12:47:34.456Z,100011.28
2018-12-20T12:52:36.927Z,100000.80
2018-12-20T12:57:39.457Z,100007.31
2018-12-20T13:02:42.025Z,100000.98
2018-12-20T13:07:44.520Z,99998.31
2018-12-20T13:12:46.996Z,100004.45
2018-12-20T13:17:49.712Z,100000.48
2018-12-20T13:22:52.400Z,99996.45
2018-12-20T13:27:54.892Z,100003.80
2018-12-20T13:32:58.163Z,99998.61
2018-12-20T13:38:00.636Z,100004.16
2018-12-20T13:43:03.193Z,100008.66
2018-12-20T13:48:05.737Z,100013.00
2018-12-20T13:53:08.209Z,100015.77
2018-12-20T13:58:10.716Z,100014.20
2018-12-20T14:03:13.180Z,100011.33
2018-12-20T14:08:15.754Z,100016.31
2018-12-20T14:13:18.248Z,100019.09
2018-12-20T14:18:20.712Z,100023.53
2018-12-20T14:23:23.336Z,100021.22
2018-12-20T14:28:25.885Z,100025.28
2018-12-20T14:33:29.231Z,100021.45
2018-12-20T14:38:32.144Z,100023.75
2018-12-20T14:43:34.645Z,100024.72
2018-12-20T14:48:39.461Z,100019.32
2018-12-20T14:53:41.773Z,100023.24
2018-12-20T14:58:44.288Z,100032.71
2018-12-20T15:03:46.764Z,100035.82
2018-12-20T15:08:49.612Z,100039.92
2018-12-20T15:13:52.093Z,100048.34
2018-12-20T15:18:54.592Z,100046.26
2018-12-20T15:23:57.070Z,100049.22
2018-12-20T15:28:59.553Z,100053.47
2018-12-20T15:34:02.045Z,100050.45
2018-12-20T15:39:06.952Z,100057.72
2018-12-20T15:44:09.450Z,100066.96
2018-12-20T15:49:11.932Z,100068.67
2018-12-20T15:54:14.573Z,100063.82
2018-12-20T15:59:17.112Z,100065.39
2018-12-20T16:04:19.621Z,100069.47
2018-12-20T16:09:22.165Z,100075.70
2018-12-20T16:14:24.703Z,100069.19
2018-12-20T16:19:27.212Z,100072.60
2018-12-20T16:24:29.676Z,100068.53
2018-12-20T16:29:32.172Z,100078.09
2018-12-20T16:34:34.672Z,100072.60
2018-12-20T16:39:37.140Z,100078.88
2018-12-20T16:44:39.656Z,100077.64
2018-12-20T16:49:42.741Z,100073.72
2018-12-20T16:54:45.212Z,100080.27
2018-12-20T16:59:47.853Z,100073.14
2018-12-20T17:04:50.324Z,100073.92
2018-12-20T17:09:52.797Z,100074.98
2018-12-20T17:14:55.292Z,100071.68
2018-12-20T17:19:57.756Z,100079.08
2018-12-20T17:25:00.392Z,100077.87
2018-12-20T17:30:02.911Z,100085.66
2018-12-20T17:35:05.546Z,100088.46
2018-12-20T17:40:08.181Z,100082.25
2018-12-20T17:45:10.994Z,100073.07
2018-12-20T17:50:13.492Z,100084.81
2018-12-20T17:55:15.955Z,100084.43
2018-12-20T18:00:18.609Z,100085.84
2018-12-20T18:05:21.112Z,100088.08
2018-12-20T18:10:23.608Z,100076.98
2018-12-20T18:15:26.409Z,100071.06
2018-12-20T18:20:28.869Z,100079.92
2018-12-20T18:25:31.768Z,100089.89
2018-12-20T18:30:34.881Z,100090.50
2018-12-20T18:35:37.872Z,100089.98
2018-12-20T18:40:40.889Z,100091.52
2018-12-20T18:45:44.704Z,100093.33
2018-12-20T18:50:47.169Z,100096.83
2018-12-20T18:55:49.650Z,100096.80
2018-12-20T19:00:52.140Z,100099.40
2018-12-20T19:05:54.785Z,100094.75
2018-12-20T19:10:57.256Z,100101.42
2018-12-20T19:15:59.720Z,100096.65
2018-12-20T19:21:02.188Z,100095.59
2018-12-20T19:26:04.668Z,100103.22
2018-12-20T19:31:07.147Z,100101.56
2018-12-20T19:36:09.636Z,100103.22
2018-12-20T19:41:13.043Z,100106.14
2018-12-20T19:46:15.935Z,100110.12
2018-12-20T19:51:19.059Z,100114.62
2018-12-20T19:56:22.357Z,100116.69
2018-12-20T20:01:25.566Z,100115.48
2018-12-20T20:06:28.674Z,100110.77
2018-12-20T20:11:31.667Z,100115.26
2018-12-20T20:16:34.676Z,100115.26
2018-12-20T20:21:37.689Z,100115.13
2018-12-20T20:26:40.694Z,100119.47
2018-12-20T20:31:43.193Z,100122.92
2018-12-20T20:36:45.729Z,100114.75
2018-12-20T20:41:48.196Z,100116.77
2018-12-20T20:46:51.334Z,100113.12
2018-12-20T20:51:54.894Z,100109.56
2018-12-20T20:56:57.565Z,100102.45
2018-12-20T21:02:00.064Z,100104.80
2018-12-20T21:07:02.565Z,100112.43
2018-12-20T21:12:05.056Z,100106.28
2018-12-20T21:17:07.534Z,100112.34
2018-12-20T21:22:10.127Z,100114.70
2018-12-20T21:27:12.620Z,100109.11
2018-12-20T21:32:15.122Z,100109.20
2018-12-20T21:37:17.597Z,100108.69
2018-12-20T21:42:20.132Z,100110.95
2018-12-20T21:47:22.601Z,100113.73
2018-12-20T21:52:25.068Z,100115.34
2018-12-20T21:57:27.610Z,100125.23
2018-12-20T22:02:30.149Z,100124.09
2018-12-20T22:07:32.672Z,100119.33
2018-12-20T22:12:35.155Z,100114.80
2018-12-20T22:17:37.632Z,100120.02
2018-12-20T22:22:40.229Z,100114.52
2018-12-20T22:27:42.816Z,100107.66
2018-12-20T22:32:46.570Z,100105.17
2018-12-20T22:37:50.226Z,100098.47
2018-12-20T22:42:52.696Z,100097.97
2018-12-20T22:47:55.233Z,100098.15
2018-12-20T22:52:57.981Z,100095.03
2018-12-20T22:58:00.529Z,100100.83
2018-12-20T23:03:03.165Z,100101.67
2018-12-20T23:08:05.665Z,100103.36
2018-12-20T23:13:08.161Z,100102.07
2018-12-20T23:18:10.884Z,100106.61
2018-12-20T23:23:14.113Z,100097.95
2018-12-20T23:28:16.597Z,100089.78
2018-12-20T23:33:19.063Z,100086.71
2018-12-20T23:38:21.528Z,100083.75
2018-12-20T23:43:24.024Z,100079.59
2018-12-20T23:48:26.483Z,100067.71
2018-12-20T23:53:29.869Z,100057.45
2018-12-20T23:58:32.360Z,100061.80
